This is the latest recevied weather packets stored in our database for station/object EA4IAJ-12. If no packets are shown the sender has not sent any weather packets the latest 10 day(s).
| Time | Temp. | Humidity | Pressure | Rain* | Wind** | Luminosity | Snow |
|---|---|---|---|---|---|---|---|
| 1788107791 | 33.33° C | 24% | 1050.4 hPa | - | - | - | - |
| 1788105990 | 33.33° C | 24% | 1050.3 hPa | - | - | - | - |
| 1788104201 | 33.89° C | 24% | 1053.9 hPa | - | - | - | - |
| 1788103310 | 34.44° C | 25% | 1057.2 hPa | - | - | - | - |
| 1788102400 | 35.56° C | 25% | 1060 hPa | - | - | - | - |
| 1788100599 | 35° C | 25% | 1058.7 hPa | - | - | - | - |
| 1788099710 | 35° C | 26% | 1059.2 hPa | - | - | - | - |
| 1788098798 | 35.56° C | 26% | 1063 hPa | - | - | - | - |
| 1788096999 | 35.56° C | 26% | 1063.5 hPa | - | - | - | - |
| 1788095196 | 36.67° C | 27% | 1069.2 hPa | - | - | - | - |
| 1788094295 | 37.78° C | 28% | 1073 hPa | - | - | - | - |
| 1788093394 | 36.67° C | 28% | 1070.2 hPa | - | - | - | - |
| 1788091593 | 38.33° C | 30% | 1078.4 hPa | - | - | - | - |
| 1788089792 | 35.56° C | 31% | 1069 hPa | - | - | - | - |
| 1788088892 | 36.67° C | 32% | 1073.1 hPa | - | - | - | - |
| 1788087991 | 36.11° C | 34% | 1073.4 hPa | - | - | - | - |
| 1788087091 | 35° C | 35% | 1069.5 hPa | - | - | - | - |
| 1788086190 | 37.78° C | 37% | 1080.8 hPa | - | - | - | - |
| 1788085290 | 37.22° C | 39% | 1081.2 hPa | - | - | - | - |
| 1788084389 | 36.67° C | 43% | 1080.2 hPa | - | - | - | - |
| 1788082601 | 35.56° C | 52% | 1077.1 hPa | - | - | - | - |
| 1788081710 | 35.56° C | 60% | 1080.3 hPa | - | - | - | - |
| 1788080800 | 31.67° C | 64% | 1063.5 hPa | - | - | - | - |
| 1788079910 | 31.67° C | 74% | 1065.1 hPa | - | - | - | - |
| 1788078998 | 31.67° C | 82% | 1065 hPa | - | - | - | - |
* Rain since midnight (hover to see other rain measurements)
** Current wind speed in m/s (hover to see current wind gust speed)